Terminal Aerodrome Forecast
Issued by NWS

Home | Current Version | Previous Version | Text Only | Print | Product List | Glossary On
Versions: 1 2 3 4 5 6 7 8 9 10 11 12 13 14 15 16 17
000
FTUS42 KTAE 181120
TAFECP
TAF
KECP 181120Z 1812/1912 00000KT 1SM BR OVC007
      TEMPO 1812/1814 3SM BR SCT007 BKN020
     FM181400 20005KT P6SM OVC010
     FM182000 22007KT P6SM OVC050
     FM182100 22010KT P6SM VCTS OVC050CB
     FM190000 20004KT P6SM -RA SCT025 OVC050=

USA.gov is the U.S. government's official web portal to all federal, state and local government web resources and services.